Weather at Cleveland Hopkins International Airport

Public forecast

Using degrees Fahrenheit for public forecast. Weather courtesy of forecast.io.

Current aviation weather report (METAR) for Cleveland Hopkins International Airport

2024/06/17 02:51 (retrieved 41 minutes ago)

KCLE 170251Z 17007KT 10SM CLR 23/14 A2998 RMK AO2 SLP163 T02280139 50001

Closest aviation forecast (TAF) to Cleveland Hopkins International Airport

Forecast is more than 6 hours old.

Closest forecast is Selfridge Air National Guard Base Airport, 84.5 nm (156.5 km) NNW.

2024/06/16 19:21 Correction (retrieved 8 hours ago)

TAF COR KMTC 161910Z 1619/1801 11010G15KT 9999 SKC QNH2992INS BECMG 1705/1706 20009KT 9999 SCT050 QNH2993INS TEMPO 1718/1722 23010G15KT 4800 -TSRA BKN050CB TX32/1718Z TN22/1703Z LAST NO AMDS AFT 1703 NEXT 1711